createdAt,value
2018-06-05T00:02:13.980Z,7.57
2018-06-05T00:04:42.061Z,7.47
2018-06-05T00:07:10.187Z,7.70
2018-06-05T00:09:38.264Z,7.33
2018-06-05T00:12:06.352Z,8.00
2018-06-05T00:14:34.487Z,7.30
2018-06-05T00:17:02.600Z,7.27
2018-06-05T00:19:30.716Z,7.93
2018-06-05T00:21:58.864Z,7.20
2018-06-05T00:24:26.968Z,7.43
2018-06-05T00:26:55.114Z,7.47
2018-06-05T00:29:23.161Z,7.17
2018-06-05T00:31:51.240Z,6.80
2018-06-05T00:34:19.316Z,7.07
2018-06-05T00:36:47.439Z,7.07
2018-06-05T00:39:15.521Z,7.03
2018-06-05T00:41:43.603Z,6.53
2018-06-05T00:44:11.481Z,6.93
2018-06-05T00:46:39.572Z,6.20
2018-06-05T00:49:07.641Z,6.33
2018-06-05T00:51:47.252Z,6.47
2018-06-05T00:54:15.337Z,6.60
2018-06-05T00:56:43.421Z,6.03
2018-06-05T00:59:11.508Z,6.50
2018-06-05T01:01:39.627Z,6.10
2018-06-05T01:04:07.715Z,6.40
2018-06-05T01:06:35.797Z,6.07
2018-06-05T01:09:05.586Z,6.27
2018-06-05T01:11:33.698Z,6.03
2018-06-05T01:14:01.800Z,6.13
2018-06-05T01:16:29.957Z,5.77
2018-06-05T01:18:58.034Z,5.83
2018-06-05T01:21:26.145Z,5.63
2018-06-05T01:23:54.250Z,5.70
2018-06-05T01:26:22.331Z,5.90
2018-06-05T01:28:50.412Z,5.40
2018-06-05T01:31:18.739Z,5.27
2018-06-05T01:33:47.808Z,5.83
2018-06-05T01:36:15.903Z,5.80
2018-06-05T01:38:43.981Z,5.60
2018-06-05T01:41:12.060Z,5.60
2018-06-05T01:43:40.183Z,5.20
2018-06-05T01:46:08.257Z,5.47
2018-06-05T01:48:36.740Z,5.50
2018-06-05T01:51:04.824Z,5.13
2018-06-05T01:53:32.909Z,5.50
2018-06-05T01:56:01.078Z,4.97
2018-06-05T01:58:29.083Z,5.23
2018-06-05T02:00:57.169Z,5.37
2018-06-05T02:03:25.269Z,4.80
2018-06-05T02:05:53.332Z,5.33
2018-06-05T02:08:21.392Z,5.30
2018-06-05T02:10:49.457Z,5.27
2018-06-05T02:13:17.541Z,5.07
2018-06-05T02:15:45.610Z,5.53
2018-06-05T02:18:13.701Z,4.73
2018-06-05T02:20:41.786Z,5.03
2018-06-05T02:23:09.853Z,5.00
2018-06-05T02:25:37.938Z,5.07
2018-06-05T02:28:06.004Z,5.10
2018-06-05T02:30:34.073Z,5.00
2018-06-05T02:33:02.221Z,4.70
2018-06-05T02:35:30.353Z,4.93
2018-06-05T02:37:58.489Z,5.10
2018-06-05T02:40:26.620Z,4.90
2018-06-05T02:42:54.722Z,4.90
2018-06-05T02:45:22.792Z,4.50
2018-06-05T02:47:50.873Z,4.73
2018-06-05T02:50:18.960Z,4.57
2018-06-05T02:52:47.025Z,5.07
2018-06-05T02:55:15.105Z,4.83
2018-06-05T02:57:43.193Z,4.60
2018-06-05T03:00:11.308Z,4.77
2018-06-05T03:02:39.337Z,4.77
2018-06-05T03:05:07.416Z,4.60
2018-06-05T03:07:35.526Z,4.80
2018-06-05T03:10:03.628Z,4.63
2018-06-05T03:12:31.604Z,4.83
2018-06-05T03:15:00.497Z,4.87
2018-06-05T03:17:28.640Z,4.73
2018-06-05T03:19:57.232Z,4.90
2018-06-05T03:22:25.305Z,4.77
2018-06-05T03:24:53.389Z,5.37
2018-06-05T03:27:21.469Z,5.37
2018-06-05T03:29:49.540Z,5.40
2018-06-05T03:32:17.638Z,5.30
2018-06-05T03:34:45.692Z,5.50
2018-06-05T03:37:13.756Z,5.67
2018-06-05T03:39:41.894Z,5.63
2018-06-05T03:42:10.513Z,4.87
2018-06-05T03:44:38.604Z,5.47
2018-06-05T03:47:07.053Z,5.13
2018-06-05T03:49:41.651Z,5.60
2018-06-05T03:52:10.341Z,5.83
2018-06-05T03:54:38.468Z,6.13
2018-06-05T03:57:06.702Z,5.40
2018-06-05T03:59:34.786Z,6.40
2018-06-05T04:02:02.893Z,5.90
2018-06-05T04:04:31.064Z,6.03
2018-06-05T04:06:59.178Z,6.13
2018-06-05T04:09:27.245Z,5.50
2018-06-05T04:11:55.327Z,5.60
2018-06-05T04:14:23.406Z,5.53
2018-06-05T04:16:52.136Z,5.63
2018-06-05T04:19:20.200Z,5.80
2018-06-05T04:21:48.272Z,6.10
2018-06-05T04:24:16.375Z,5.77
2018-06-05T04:26:44.473Z,6.03
2018-06-05T04:29:12.545Z,5.57
2018-06-05T04:31:40.620Z,5.80
2018-06-05T04:34:08.713Z,5.40
2018-06-05T04:36:36.817Z,5.30
2018-06-05T04:39:06.636Z,5.37
2018-06-05T04:41:34.736Z,5.60
2018-06-05T04:44:02.844Z,6.07
2018-06-05T04:46:31.266Z,5.43
2018-06-05T04:48:59.413Z,5.67
2018-06-05T04:51:27.484Z,5.40
2018-06-05T04:53:55.584Z,5.70
2018-06-05T04:56:23.495Z,5.90
2018-06-05T04:58:51.623Z,5.70
2018-06-05T05:01:19.736Z,5.47
2018-06-05T05:03:47.841Z,5.40
2018-06-05T05:06:15.919Z,5.30
2018-06-05T05:08:44.011Z,5.17
2018-06-05T05:11:12.096Z,5.30
2018-06-05T05:13:40.181Z,5.27
2018-06-05T05:16:08.287Z,5.70
2018-06-05T05:18:36.431Z,5.80
2018-06-05T05:21:04.618Z,5.20
2018-06-05T05:23:32.810Z,5.17
2018-06-05T05:26:01.013Z,5.37
2018-06-05T05:28:29.285Z,5.13
2018-06-05T05:30:57.495Z,5.30
2018-06-05T05:33:25.608Z,5.80
2018-06-05T05:35:53.740Z,4.83
2018-06-05T05:38:21.784Z,4.80
2018-06-05T05:40:49.864Z,4.50
2018-06-05T05:43:17.967Z,4.70
2018-06-05T05:45:46.045Z,4.87
2018-06-05T05:48:14.116Z,5.13
2018-06-05T05:50:42.089Z,4.53
2018-06-05T05:53:10.144Z,4.53
2018-06-05T05:55:38.250Z,4.50
2018-06-05T05:58:06.315Z,4.60
2018-06-05T06:00:34.405Z,4.20
2018-06-05T06:03:02.568Z,5.33
2018-06-05T06:05:30.785Z,4.57
2018-06-05T06:07:59.059Z,4.80
2018-06-05T06:10:27.170Z,4.53
2018-06-05T06:12:55.266Z,4.30
2018-06-05T06:15:23.344Z,4.37
2018-06-05T06:17:51.450Z,4.50
2018-06-05T06:20:19.552Z,4.50
2018-06-05T06:22:47.628Z,4.33
2018-06-05T06:25:15.732Z,4.40
2018-06-05T06:27:43.921Z,4.40
2018-06-05T06:30:11.975Z,4.63
2018-06-05T06:32:40.053Z,4.20
2018-06-05T06:35:08.005Z,4.00
2018-06-05T06:37:36.085Z,4.20
2018-06-05T06:40:04.283Z,4.10
2018-06-05T06:42:32.513Z,3.83
2018-06-05T06:45:00.389Z,3.90
2018-06-05T06:47:28.320Z,4.50
2018-06-05T06:49:56.443Z,4.13
2018-06-05T06:52:24.498Z,3.63
2018-06-05T06:54:52.576Z,3.90
2018-06-05T06:57:20.697Z,3.53
2018-06-05T06:59:48.764Z,3.70
2018-06-05T07:02:16.858Z,3.90
2018-06-05T07:04:44.933Z,3.70
2018-06-05T07:07:13.020Z,3.73
2018-06-05T07:09:41.153Z,3.60
2018-06-05T07:12:09.277Z,4.27
2018-06-05T07:14:37.353Z,3.80
2018-06-05T07:17:05.424Z,3.73
2018-06-05T07:19:33.579Z,3.90
2018-06-05T07:22:01.694Z,3.70
2018-06-05T07:24:29.883Z,3.83
2018-06-05T07:26:58.011Z,3.77
2018-06-05T07:29:26.081Z,3.43
2018-06-05T07:31:54.213Z,3.80
2018-06-05T07:34:22.276Z,3.70
2018-06-05T07:36:50.368Z,3.30
2018-06-05T07:39:18.441Z,3.63
2018-06-05T07:41:46.505Z,3.50
2018-06-05T07:44:14.609Z,3.43
2018-06-05T07:46:42.664Z,3.60
2018-06-05T07:49:10.728Z,3.73
2018-06-05T07:51:38.833Z,3.40
2018-06-05T07:54:06.977Z,3.10
2018-06-05T07:56:35.064Z,3.30
2018-06-05T07:59:03.148Z,3.30
2018-06-05T08:01:31.287Z,3.40
2018-06-05T08:03:59.469Z,3.30
2018-06-05T08:06:27.573Z,3.50
2018-06-05T08:08:55.654Z,3.00
2018-06-05T08:11:23.753Z,3.63
2018-06-05T08:13:51.959Z,3.30
2018-06-05T08:16:20.018Z,3.23
2018-06-05T08:18:48.108Z,3.20
2018-06-05T08:21:16.193Z,3.20
2018-06-05T08:23:44.157Z,3.60
2018-06-05T08:26:12.272Z,2.90
2018-06-05T08:28:40.364Z,3.20
2018-06-05T08:31:08.424Z,3.73
2018-06-05T08:33:36.496Z,3.50
2018-06-05T08:36:04.669Z,3.43
2018-06-05T08:38:32.765Z,3.23
2018-06-05T08:41:01.458Z,3.17
2018-06-05T08:43:29.880Z,3.43
2018-06-05T08:45:58.952Z,3.33
2018-06-05T08:48:27.048Z,2.80
2018-06-05T08:50:55.133Z,3.17
2018-06-05T08:53:23.188Z,3.10
2018-06-05T08:55:51.253Z,3.03
2018-06-05T08:58:19.318Z,3.13
2018-06-05T09:00:47.433Z,3.50
2018-06-05T09:03:15.520Z,4.07
2018-06-05T09:05:43.588Z,3.00
2018-06-05T09:08:11.710Z,2.87
2018-06-05T09:10:39.801Z,3.33
2018-06-05T09:13:07.889Z,3.13
2018-06-05T09:15:36.015Z,3.40
2018-06-05T09:18:06.118Z,3.10
2018-06-05T09:20:34.232Z,3.17
2018-06-05T09:25:55.225Z,3.07
2018-06-05T09:28:23.328Z,3.43
2018-06-05T09:30:51.679Z,3.17
2018-06-05T09:33:19.764Z,3.10
2018-06-05T09:35:47.865Z,3.13
2018-06-05T09:38:15.932Z,3.30
2018-06-05T09:40:44.002Z,2.93
2018-06-05T09:43:12.087Z,2.80
2018-06-05T09:45:40.174Z,2.97
2018-06-05T09:48:08.281Z,3.10
2018-06-05T09:50:36.389Z,2.93
2018-06-05T09:53:04.506Z,3.13
2018-06-05T09:55:32.732Z,3.27
2018-06-05T09:58:01.017Z,3.03
2018-06-05T10:00:34.524Z,2.77
2018-06-05T10:03:02.645Z,2.80
2018-06-05T10:05:30.864Z,3.47
2018-06-05T10:07:59.113Z,3.00
2018-06-05T10:10:27.590Z,3.20
2018-06-05T10:12:55.796Z,2.97
2018-06-05T10:15:23.909Z,2.80
2018-06-05T10:17:51.964Z,3.00
2018-06-05T10:20:20.057Z,2.97
2018-06-05T10:22:48.148Z,2.80
2018-06-05T10:25:16.370Z,2.90
2018-06-05T10:27:44.780Z,2.90
2018-06-05T10:30:13.176Z,2.80
2018-06-05T10:32:41.377Z,3.10
2018-06-05T10:35:09.544Z,3.20
2018-06-05T10:37:37.651Z,3.20
2018-06-05T10:40:05.832Z,3.00
2018-06-05T10:42:33.897Z,2.93
2018-06-05T10:45:02.109Z,3.13
2018-06-05T10:47:30.184Z,2.93
2018-06-05T10:49:58.281Z,2.73
2018-06-05T10:52:26.349Z,3.40
2018-06-05T10:54:54.483Z,2.80
2018-06-05T10:57:22.545Z,2.60
2018-06-05T10:59:50.753Z,3.00
2018-06-05T11:02:18.962Z,2.80
2018-06-05T11:04:47.181Z,3.13
2018-06-05T11:07:15.592Z,2.97
2018-06-05T11:09:43.856Z,2.70
2018-06-05T11:12:12.104Z,2.63
2018-06-05T11:14:40.336Z,2.60
2018-06-05T11:17:08.489Z,2.80
2018-06-05T11:19:36.619Z,3.10
2018-06-05T11:22:04.701Z,2.57
2018-06-05T11:24:32.773Z,2.93
2018-06-05T11:27:00.873Z,2.57
2018-06-05T11:29:28.960Z,3.10
2018-06-05T11:31:57.046Z,3.23
2018-06-05T11:34:25.118Z,2.93
2018-06-05T11:36:53.226Z,3.27
2018-06-05T11:39:21.293Z,2.70
2018-06-05T11:41:49.444Z,2.83
2018-06-05T11:44:17.622Z,3.17
2018-06-05T11:46:45.879Z,2.70
2018-06-05T11:49:14.153Z,3.10
2018-06-05T11:51:42.470Z,3.17
2018-06-05T11:54:10.659Z,2.43
2018-06-05T11:56:38.789Z,2.60
2018-06-05T11:59:06.903Z,3.10
2018-06-05T12:01:34.985Z,2.77
2018-06-05T12:04:03.076Z,2.70
2018-06-05T12:06:31.221Z,2.87
2018-06-05T12:08:59.268Z,2.83
2018-06-05T12:11:27.353Z,2.77
2018-06-05T12:13:55.428Z,2.63
2018-06-05T12:16:23.513Z,2.83
2018-06-05T12:18:51.642Z,2.67
2018-06-05T12:21:19.822Z,2.50
2018-06-05T12:23:48.005Z,2.50
2018-06-05T12:26:16.406Z,2.60
2018-06-05T12:28:44.654Z,2.60
2018-06-05T12:31:12.961Z,2.70
2018-06-05T12:33:41.171Z,2.67
2018-06-05T12:36:09.494Z,2.60
2018-06-05T12:38:37.764Z,2.60
2018-06-05T12:41:06.072Z,2.33
2018-06-05T12:43:34.137Z,2.63
2018-06-05T12:46:02.240Z,2.60
2018-06-05T12:48:30.300Z,2.93
2018-06-05T12:50:58.417Z,2.57
2018-06-05T12:53:26.484Z,2.83
2018-06-05T12:55:54.605Z,2.87
2018-06-05T12:58:22.676Z,3.10
2018-06-05T13:00:50.823Z,2.70
2018-06-05T13:03:19.207Z,2.30
2018-06-05T13:05:47.621Z,2.33
2018-06-05T13:08:15.938Z,2.57
2018-06-05T13:10:44.549Z,2.80
2018-06-05T13:13:12.754Z,2.70
2018-06-05T13:15:41.180Z,2.40
2018-06-05T13:18:09.291Z,2.30
2018-06-05T13:20:37.388Z,3.03
2018-06-05T13:23:06.200Z,2.60
2018-06-05T13:25:34.296Z,2.77
2018-06-05T13:28:02.386Z,2.53
2018-06-05T13:30:30.457Z,2.60
2018-06-05T13:32:58.333Z,2.90
2018-06-05T13:35:26.390Z,2.40
2018-06-05T13:37:54.492Z,2.80
2018-06-05T13:40:22.560Z,2.43
2018-06-05T13:42:50.911Z,3.03
2018-06-05T13:45:19.203Z,2.63
2018-06-05T13:47:47.497Z,2.90
2018-06-05T13:50:15.717Z,2.70
2018-06-05T13:52:44.387Z,2.43
2018-06-05T13:55:12.841Z,2.87
2018-06-05T13:57:41.389Z,2.70
2018-06-05T14:00:09.605Z,3.03
2018-06-05T14:02:37.688Z,2.83
2018-06-05T14:05:05.832Z,3.47
2018-06-05T14:07:33.917Z,2.70
2018-06-05T14:10:01.993Z,3.07
2018-06-05T14:12:30.057Z,3.20
2018-06-05T14:14:58.128Z,2.90
2018-06-05T14:17:26.288Z,2.97
2018-06-05T14:19:54.429Z,3.07
2018-06-05T14:22:22.514Z,3.03
2018-06-05T14:24:50.701Z,3.23
2018-06-05T14:27:18.876Z,2.93
2018-06-05T14:29:47.075Z,3.17
2018-06-05T14:32:15.662Z,2.90
2018-06-05T14:34:44.165Z,3.10
2018-06-05T14:37:12.177Z,3.10
2018-06-05T14:39:40.965Z,3.40
2018-06-05T14:42:09.093Z,3.73
2018-06-05T14:44:37.079Z,2.90
2018-06-05T14:47:04.996Z,3.20
2018-06-05T14:49:33.116Z,3.37
2018-06-05T14:52:01.201Z,3.70
2018-06-05T14:54:29.285Z,3.30
2018-06-05T14:56:57.352Z,3.63
2018-06-05T14:59:25.433Z,3.50
2018-06-05T15:01:53.541Z,3.83
2018-06-05T15:04:21.689Z,3.80
2018-06-05T15:06:49.878Z,3.20
2018-06-05T15:09:18.203Z,3.70
2018-06-05T15:11:46.398Z,3.50
2018-06-05T15:14:15.093Z,3.73
2018-06-05T15:16:43.373Z,3.50
2018-06-05T15:19:11.645Z,3.90
2018-06-05T15:21:39.818Z,3.60
2018-06-05T15:24:07.876Z,3.80
2018-06-05T15:26:36.021Z,3.50
2018-06-05T15:29:04.084Z,3.60
2018-06-05T15:31:32.204Z,3.80
2018-06-05T15:34:00.385Z,3.53
2018-06-05T15:36:28.406Z,3.90
2018-06-05T15:38:56.496Z,3.90
2018-06-05T15:41:24.573Z,4.03
2018-06-05T15:43:52.474Z,3.90
2018-06-05T15:46:20.659Z,3.83
2018-06-05T15:48:48.815Z,3.70
2018-06-05T15:51:17.028Z,4.03
2018-06-05T15:53:45.269Z,3.73
2018-06-05T15:56:13.474Z,4.10
2018-06-05T15:58:41.402Z,4.07
2018-06-05T16:01:09.505Z,4.20
2018-06-05T16:03:37.580Z,4.10
2018-06-05T16:06:05.868Z,3.80
2018-06-05T16:08:33.953Z,4.10
2018-06-05T16:11:02.123Z,3.83
2018-06-05T16:13:30.189Z,3.90
2018-06-05T16:15:58.257Z,3.97
2018-06-05T16:18:26.224Z,4.13
2018-06-05T16:20:54.292Z,4.00
2018-06-05T16:23:22.373Z,3.80
2018-06-05T16:25:51.026Z,3.90
2018-06-05T16:28:19.121Z,3.80
2018-06-05T16:30:47.185Z,4.30
2018-06-05T16:33:15.252Z,3.73
2018-06-05T16:35:43.312Z,4.40
2018-06-05T16:38:11.369Z,4.37
2018-06-05T16:40:39.462Z,4.47
2018-06-05T16:43:07.533Z,4.60
2018-06-05T16:45:35.621Z,3.83
2018-06-05T16:48:03.711Z,4.00
2018-06-05T16:50:32.681Z,4.03
2018-06-05T16:53:00.852Z,4.60
2018-06-05T16:55:29.006Z,3.87
2018-06-05T16:57:58.313Z,4.23
2018-06-05T17:00:26.641Z,4.07
2018-06-05T17:02:55.435Z,4.30
2018-06-05T17:05:23.827Z,4.07
2018-06-05T17:07:52.497Z,4.40
2018-06-05T17:10:20.585Z,4.53
2018-06-05T17:12:48.708Z,4.20
2018-06-05T17:15:16.785Z,4.27
2018-06-05T17:17:44.840Z,4.40
2018-06-05T17:20:12.936Z,4.20
2018-06-05T17:22:41.062Z,4.23
2018-06-05T17:25:09.132Z,4.10
2018-06-05T17:27:37.213Z,4.23
2018-06-05T17:30:05.297Z,4.33
2018-06-05T17:32:33.164Z,4.37
2018-06-05T17:35:01.242Z,4.13
2018-06-05T17:37:29.340Z,4.17
2018-06-05T17:39:57.295Z,4.17
2018-06-05T17:42:25.356Z,4.03
2018-06-05T17:44:53.429Z,4.00
2018-06-05T17:47:21.545Z,3.97
2018-06-05T17:49:49.662Z,4.00
2018-06-05T17:52:17.796Z,4.33
2018-06-05T17:54:45.937Z,4.57
2018-06-05T17:57:14.130Z,4.00
2018-06-05T17:59:43.134Z,4.07
2018-06-05T18:02:11.228Z,4.53
2018-06-05T18:04:39.293Z,4.13
2018-06-05T18:07:07.365Z,4.33
2018-06-05T18:09:35.456Z,4.63
2018-06-05T18:12:03.518Z,4.57
2018-06-05T18:14:31.629Z,3.97
2018-06-05T18:16:59.686Z,3.90
2018-06-05T18:19:27.757Z,4.47
2018-06-05T18:21:55.829Z,4.50
2018-06-05T18:24:23.909Z,3.90
2018-06-05T18:26:51.995Z,4.23
2018-06-05T18:29:20.141Z,4.20
2018-06-05T18:31:48.220Z,4.30
2018-06-05T18:34:16.392Z,4.50
2018-06-05T18:36:44.687Z,4.13
2018-06-05T18:39:12.928Z,4.07
2018-06-05T18:41:41.956Z,4.60
2018-06-05T18:44:10.107Z,4.40
2018-06-05T18:46:38.253Z,4.30
2018-06-05T18:49:07.405Z,4.70
2018-06-05T18:51:35.479Z,4.80
2018-06-05T18:54:03.537Z,4.50
2018-06-05T18:56:31.497Z,4.70
2018-06-05T18:58:59.649Z,4.53
2018-06-05T19:01:27.732Z,4.47
2018-06-05T19:03:55.877Z,4.53
2018-06-05T19:06:23.916Z,4.03
2018-06-05T19:08:52.161Z,4.03
2018-06-05T19:11:20.880Z,4.67
2018-06-05T19:13:49.078Z,4.80
2018-06-05T19:16:17.451Z,4.63
2018-06-05T19:18:45.587Z,4.80
2018-06-05T19:21:14.002Z,4.57
2018-06-05T19:23:43.366Z,5.20
2018-06-05T19:26:12.432Z,4.60
2018-06-05T19:28:41.842Z,4.73
2018-06-05T19:31:09.972Z,5.07
2018-06-05T19:36:14.028Z,4.97
2018-06-05T19:38:42.446Z,4.93
2018-06-05T19:41:10.646Z,5.73
2018-06-05T19:43:39.198Z,5.10
2018-06-05T19:46:07.393Z,5.53
2018-06-05T19:48:35.589Z,6.00
2018-06-05T19:51:03.766Z,5.33
2018-06-05T19:53:31.857Z,5.70
2018-06-05T19:56:00.280Z,5.37
2018-06-05T19:58:28.400Z,5.73
2018-06-05T20:00:56.589Z,5.27
2018-06-05T20:03:24.986Z,5.70
2018-06-05T20:05:53.116Z,5.40
2018-06-05T20:08:23.025Z,5.43
2018-06-05T20:10:51.213Z,6.03
2018-06-05T20:13:20.453Z,5.93
2018-06-05T20:15:48.607Z,5.93
2018-06-05T20:18:16.872Z,5.50
2018-06-05T20:20:45.420Z,5.70
2018-06-05T20:23:13.496Z,5.90
2018-06-05T20:25:42.391Z,5.87
2018-06-05T20:28:10.861Z,5.47
2018-06-05T20:30:39.255Z,5.87
2018-06-05T20:33:07.357Z,5.70
2018-06-05T20:35:35.708Z,5.57
2018-06-05T20:38:04.203Z,6.37
2018-06-05T20:40:32.781Z,6.07
2018-06-05T20:43:00.921Z,6.47
2018-06-05T20:45:29.067Z,6.03
2018-06-05T20:47:57.197Z,6.00
2018-06-05T20:50:26.432Z,6.43
2018-06-05T20:52:54.512Z,5.70
2018-06-05T20:55:22.660Z,5.77
2018-06-05T20:57:52.779Z,5.57
2018-06-05T21:00:21.511Z,5.63
2018-06-05T21:02:49.627Z,5.83
2018-06-05T21:05:18.459Z,5.50
2018-06-05T21:07:46.632Z,5.90
2018-06-05T21:10:14.992Z,5.43
2018-06-05T21:12:43.337Z,6.17
2018-06-05T21:15:11.894Z,5.33
2018-06-05T21:17:40.208Z,5.50
2018-06-05T21:20:08.463Z,5.30
2018-06-05T21:22:36.641Z,5.07
2018-06-05T21:25:05.073Z,5.30
2018-06-05T21:27:33.408Z,5.63
2018-06-05T21:30:01.909Z,5.13
2018-06-05T21:32:30.384Z,5.30
2018-06-05T21:34:58.649Z,5.40
2018-06-05T21:37:26.945Z,5.10
2018-06-05T21:39:55.117Z,5.03
2018-06-05T21:42:23.499Z,4.80
2018-06-05T21:44:52.446Z,4.93
2018-06-05T21:47:20.617Z,5.10
2018-06-05T21:49:49.027Z,4.83
2018-06-05T21:52:17.911Z,4.87
2018-06-05T21:54:46.362Z,4.87
2018-06-05T21:57:14.753Z,4.43
2018-06-05T21:59:42.947Z,4.70
2018-06-05T22:02:11.033Z,4.53
2018-06-05T22:04:39.152Z,4.67
2018-06-05T22:07:07.314Z,4.50
2018-06-05T22:09:35.232Z,4.13
2018-06-05T22:12:03.325Z,4.17
2018-06-05T22:14:31.419Z,4.40
2018-06-05T22:16:59.521Z,4.53
2018-06-05T22:19:27.709Z,4.00
2018-06-05T22:21:55.816Z,4.00
2018-06-05T22:24:23.906Z,4.13
2018-06-05T22:26:52.024Z,4.23
2018-06-05T22:29:20.207Z,4.40
2018-06-05T22:31:48.403Z,4.50
2018-06-05T22:34:16.608Z,4.10
2018-06-05T22:36:44.988Z,4.27
2018-06-05T22:39:13.446Z,3.80
2018-06-05T22:41:41.705Z,4.10
2018-06-05T22:44:09.919Z,3.80
2018-06-05T22:46:38.116Z,4.20
2018-06-05T22:49:06.191Z,3.77
2018-06-05T22:51:34.276Z,3.63
2018-06-05T22:54:02.345Z,3.70
2018-06-05T22:56:30.429Z,3.73
2018-06-05T22:58:58.514Z,3.63
2018-06-05T23:01:26.452Z,3.80
2018-06-05T23:03:54.586Z,3.70
2018-06-05T23:06:22.709Z,3.73
2018-06-05T23:08:50.877Z,3.83
2018-06-05T23:11:19.027Z,3.53
2018-06-05T23:13:47.407Z,3.70
2018-06-05T23:16:15.648Z,3.73
2018-06-05T23:18:44.876Z,3.80
2018-06-05T23:21:13.058Z,3.90
2018-06-05T23:23:41.267Z,4.10
2018-06-05T23:26:09.457Z,3.60
2018-06-05T23:28:37.533Z,3.80
2018-06-05T23:31:05.814Z,3.90
2018-06-05T23:33:33.912Z,3.50
2018-06-05T23:36:01.869Z,3.60
2018-06-05T23:38:29.949Z,3.60
2018-06-05T23:40:58.024Z,3.90
2018-06-05T23:43:26.101Z,3.77
2018-06-05T23:45:54.281Z,3.47
2018-06-05T23:48:22.392Z,3.53
2018-06-05T23:50:50.533Z,3.50
2018-06-05T23:53:18.661Z,3.40
2018-06-05T23:55:46.871Z,3.33
2018-06-05T23:58:15.078Z,3.30
